Date,TemperatureHighF,TemperatureAvgF,TemperatureLowF,DewpointHighF,DewpointAvgF,DewpointLowF,HumidityHigh,HumidityAvg,HumidityLow,PressureMaxIn,PressureMinIn,WindSpeedMaxMPH,WindSpeedAvgMPH,GustSpeedMaxMPH,PrecipitationSumIn
2013-1-8,51,39,30,34,30,28,92,74,51,30.25,30.22,7,1,9,0.00
2013-1-9,55,41,31,46,38,29,97,88,68,30.51,30.23,8,1,11,0.00
2013-1-10,53,42,31,51,39,30,97,90,68,30.51,30.01,8,2,11,0.32
2013-1-11,63,56,49,55,52,45,97,85,67,30.01,29.87,14,4,19,0.71
2013-1-12,66,61,46,63,58,44,97,90,84,29.98,29.69,13,4,23,0.16
2013-1-13,67,42,27,62,41,25,97,94,86,30.23,29.65,19,3,23,1.88
2013-1-14,28,25,22,24,21,19,89,85,76,30.47,30.25,8,2,12,0.00
2013-1-15,34,27,20,26,22,18,92,83,71,30.39,30.11,10,3,17,0.00
2013-1-16,35,32,30,27,26,24,86,79,63,30.14,30.03,7,1,8,0.00
2013-1-17,48,34,26,36,27,21,94,76,49,30.45,30.12,8,2,17,0.00
2013-1-18,44,32,17,27,22,15,94,70,42,30.55,30.26,9,3,15,0.00
2013-1-19,56,47,40,35,29,24,64,51,40,30.26,29.95,15,7,28,0.00
2013-1-20,46,36,25,37,19,10,73,51,32,30.28,30.01,8,2,19,0.00
2013-1-21,27,22,13,18,10,1,81,61,40,30.34,30.18,12,3,20,0.00
2013-1-22,20,14,8,6,1,-2,72,57,43,30.47,30.34,9,2,13,0.00
2013-1-23,36,23,9,21,12,4,84,65,43,30.43,30.14,10,2,13,0.00
2013-1-24,31,24,17,20,7,-1,78,51,29,30.61,30.20,12,3,20,0.00
2013-1-25,30,24,19,23,16,4,90,74,44,30.38,30.11,7,1,10,0.00
2013-1-26,40,26,14,23,18,11,93,73,43,30.43,30.19,7,1,10,0.00
2013-1-27,43,32,20,42,26,16,95,80,60,30.43,30.12,7,2,11,0.21
2013-1-28,56,52,44,55,49,42,96,90,73,30.14,30.02,19,6,25,0.19
2013-1-29,67,60,55,60,56,52,90,86,80,30.03,29.46,17,7,29,0.00
2013-1-30,68,48,30,62,45,24,97,87,76,29.71,29.30,19,6,37,1.49
2013-1-31,33,27,14,27,20,7,93,75,61,30.21,29.74,19,6,25,0.00
2013-2-1,20,14,6,11,5,0,80,70,58,30.51,30.22,12,3,17,0.03
2013-2-2,32,27,17,28,22,11,92,81,63,30.35,30.05,8,3,17,0.05
2013-2-3,29,24,14,24,19,12,92,83,68,30.18,30.01,9,2,17,0.00
2013-2-4,41,29,12,38,25,10,95,85,57,30.16,29.84,9,2,19,0.18
2013-2-5,47,36,27,37,32,25,95,85,67,30.06,29.89,8,2,13,0.00
2013-2-6,46,35,30,33,29,27,93,80,61,30.27,30.07,8,1,11,0.00
2013-2-7,66,47,31,48,37,29,92,71,36,30.17,29.81,8,2,13,0.13
2013-2-8,50,36,33,48,32,27,94,85,79,30.36,29.84,8,3,16,0.18
2013-2-9,50,36,24,31,26,22,94,71,45,30.41,30.16,7,2,9,0.00
2013-2-10,54,46,38,50,38,25,92,75,56,30.16,29.76,16,5,29,0.23
2013-2-11,55,46,30,51,35,26,89,67,51,30.10,29.76,17,7,28,0.00
2013-2-12,51,37,24,32,28,22,95,73,42,30.17,29.91,6,1,11,0.00
2013-2-13,42,35,30,33,31,28,93,83,65,29.92,29.80,7,2,11,0.21
2013-2-14,54,43,34,42,35,31,91,77,53,30.02,29.87,10,4,15,0.00
2013-2-15,41,33,23,33,25,18,94,75,48,30.21,30.01,10,2,20,0.00
2013-2-16,34,25,20,19,16,11,91,68,44,30.20,30.13,11,2,23,0.00
2013-2-17,40,26,13,20,15,10,92,67,37,30.28,30.17,8,1,11,0.00
2013-2-18,61,45,31,44,31,17,89,59,36,30.17,29.69,19,7,29,0.42
2013-2-19,47,32,24,44,24,14,92,74,61,30.22,29.68,17,7,28,0.13
2013-2-20,30,24,17,16,14,10,80,65,53,30.37,30.22,11,2,13,0.00
2013-2-21,36,26,16,30,20,13,92,80,57,30.35,29.98,12,4,18,0.03
2013-2-22,42,37,32,36,34,28,97,88,78,30.03,29.85,14,3,17,0.27
2013-2-23,44,34,24,28,24,21,92,71,48,30.04,29.94,7,2,12,0.00
2013-2-24,52,32,19,30,24,17,94,74,42,30.17,30.00,4,0,8,0.00
2013-2-25,52,37,24,30,26,22,92,67,39,30.13,29.78,17,4,21,0.00
2013-2-26,47,42,39,45,38,26,96,85,55,29.77,29.37,13,4,23,0.86
2013-2-27,40,36,33,37,33,30,94,89,78,29.79,29.55,14,6,20,0.04
2013-2-28,37,34,32,34,32,29,94,91,87,30.02,29.78,12,4,15,0.04
2013-3-1,36,33,32,33,31,30,95,92,86,30.07,29.98,6,1,13,0.09
2013-3-2,32,31,29,30,25,21,92,80,67,30.14,30.05,11,2,14,0.02
2013-3-3,39,30,21,24,20,13,91,71,36,30.16,30.09,11,2,13,0.03
2013-3-4,42,32,17,27,21,15,93,68,46,30.16,29.92,7,2,14,0.00
2013-3-5,43,38,29,41,33,27,95,84,57,29.92,29.64,16,3,27,0.18
2013-3-6,33,31,29,30,28,27,93,91,87,30.33,29.82,6,2,17,0.07
2013-3-7,38,33,29,32,29,27,93,85,73,30.41,30.31,4,1,6,0.18
2013-3-8,53,37,26,34,29,24,95,73,42,30.48,30.34,10,2,15,0.00
2013-3-9,61,48,32,36,32,27,84,57,35,30.33,29.98,8,2,18,0.00
2013-3-10,69,60,54,48,37,33,78,43,28,29.98,29.73,17,7,27,0.02
2013-3-11,55,47,36,52,43,31,94,85,76,29.92,29.65,15,6,22,0.34
2013-3-12,48,39,34,33,28,24,90,68,44,30.11,29.93,15,4,18,0.02
2013-3-13,35,31,23,31,22,16,92,69,55,30.39,30.09,11,3,25,0.00
2013-3-14,44,29,16,32,23,14,94,79,43,30.41,30.22,10,2,11,0.01
2013-3-15,62,44,27,44,36,26,96,77,48,30.22,29.72,6,1,13,0.07
2013-3-16,64,57,41,51,45,36,83,66,54,29.99,29.64,14,5,22,0.00
2013-3-17,41,36,33,36,33,31,95,91,82,30.10,29.90,12,5,20,1.01
2013-3-18,49,41,35,46,38,33,98,92,83,29.90,29.65,11,4,19,0.85
2013-3-19,47,37,28,35,24,16,94,64,31,30.17,29.88,11,3,20,0.00
2013-3-20,37,28,20,23,18,13,92,67,45,30.16,30.07,14,2,20,0.00
2013-3-21,40,27,19,17,13,10,75,56,33,30.10,30.02,7,1,12,0.00
2013-3-22,46,32,14,24,17,12,92,59,31,30.11,30.00,5,1,8,0.00
2013-3-23,59,44,35,29,26,23,74,52,31,30.05,29.83,11,3,15,0.00
2013-3-24,43,36,33,34,32,26,96,85,52,29.82,29.40,17,5,19,0.41
2013-3-25,34,32,30,32,30,28,94,91,88,30.05,29.48,10,3,16,0.14
2013-3-26,41,35,31,32,28,25,92,75,53,30.31,30.06,8,2,15,0.01
2013-3-27,46,35,24,29,25,22,95,71,49,30.37,30.31,8,2,14,0.01
2013-3-28,58,38,20,31,26,18,94,65,33,30.41,30.29,6,1,9,0.00
2013-3-29,61,43,27,42,33,25,92,72,43,30.33,30.19,4,1,9,0.00
2013-3-30,62,47,32,46,37,31,97,72,36,30.23,29.93,8,2,16,0.00
2013-3-31,61,50,42,50,45,40,96,83,54,29.92,29.81,15,2,15,0.14
2013-4-1,52,43,30,39,28,19,93,57,28,30.16,29.83,14,2,18,0.00
2013-4-2,52,36,21,25,20,11,92,58,22,30.31,30.16,7,1,14,0.00
2013-4-3,54,39,21,23,20,18,88,51,25,30.40,30.28,10,2,20,0.00
2013-4-4,60,46,33,26,22,18,66,43,22,30.30,30.00,13,2,14,0.00
2013-4-5,69,46,26,38,28,23,90,58,22,30.13,30.00,17,2,18,0.00
2013-4-6,73,56,36,41,35,29,80,48,28,30.13,29.86,11,3,23,0.00
2013-4-7,74,65,58,56,48,39,87,56,40,29.94,29.84,12,5,21,0.01
2013-4-8,74,63,53,58,53,49,94,72,54,29.94,29.84,16,4,23,0.00
2013-4-9,80,68,52,62,57,50,93,71,48,29.99,29.89,13,4,23,0.00
2013-4-10,83,74,65,66,62,59,82,67,51,29.91,29.69,14,5,24,0.00
2013-4-11,76,63,50,62,58,48,96,86,53,29.74,29.50,11,4,22,1.13
2013-4-12,50,44,36,47,35,32,93,74,54,29.97,29.61,16,4,24,0.01
2013-4-13,60,45,30,38,34,28,96,69,40,30.05,29.97,15,3,20,0.01
2013-4-14,75,56,36,47,40,34,93,61,29,30.01,29.79,15,3,23,0.00
2013-4-15,75,64,58,59,53,47,77,66,53,29.95,29.85,10,4,17,0.00
2013-4-16,79,67,57,68,61,52,96,81,65,30.10,29.89,10,3,20,0.42
2013-4-17,81,65,57,71,62,55,97,89,70,30.11,29.86,9,2,19,0.21
2013-4-18,81,73,65,67,62,57,91,70,50,29.85,29.55,16,6,26,0.09
2013-4-19,64,43,39,62,37,31,94,79,64,30.04,29.54,13,4,21,0.86
2013-4-20,57,42,29,34,30,25,97,67,32,30.38,30.05,11,2,15,0.00
2013-4-21,65,47,34,36,32,29,86,59,30,30.49,30.31,13,3,15,0.00
2013-4-22,74,54,33,45,38,31,93,60,29,30.33,30.07,6,1,14,0.00
2013-4-23,67,59,46,57,49,41,87,72,62,30.10,29.80,15,4,18,0.01
2013-4-24,67,47,33,56,42,32,94,84,64,30.26,29.79,10,3,20,0.71
2013-4-25,60,45,29,43,34,28,97,71,38,30.38,30.25,11,2,19,0.00
2013-4-26,67,49,32,43,36,31,94,64,33,30.43,30.30,7,1,11,0.00
2013-4-27,61,53,45,54,48,41,93,82,72,30.34,29.96,6,1,11,0.00
2013-4-28,62,57,54,57,54,52,96,91,79,29.95,29.84,8,2,12,0.08
2013-4-29,73,60,54,56,53,51,96,80,49,30.00,29.89,4,1,8,0.00
2013-4-30,87,66,48,59,54,47,96,67,37,30.00,29.91,8,2,9,0.00
2013-5-1,87,67,50,60,55,49,97,69,36,30.11,30.01,7,1,8,0.00
2013-5-2,78,68,58,61,57,55,91,69,51,30.14,30.02,7,2,14,0.00
2013-5-3,78,65,59,61,58,55,96,79,47,30.02,29.83,9,2,14,0.64
2013-5-4,61,56,52,58,53,50,97,88,69,29.98,29.85,6,1,10,0.64
2013-5-5,54,53,51,53,51,50,97,95,90,29.96,29.87,8,3,15,0.63
2013-5-6,70,59,51,58,54,50,97,86,64,29.92,29.81,11,3,17,0.00
2013-5-7,74,62,54,59,55,52,96,81,54,29.97,29.89,9,2,11,0.01
2013-5-8,80,63,49,64,56,48,98,79,41,30.01,29.92,9,1,12,0.12
2013-5-9,80,65,51,66,58,50,98,80,41,30.01,29.89,8,2,13,0.14
2013-5-10,68,64,59,64,61,57,95,90,85,29.91,29.79,5,1,9,0.38
2013-5-11,66,56,50,57,50,35,93,80,54,30.04,29.88,8,2,13,0.07
2013-5-12,61,49,35,38,34,27,96,60,33,30.16,30.05,13,2,21,0.00
2013-5-13,68,50,32,40,36,31,97,64,28,30.22,30.12,12,2,14,0.00
2013-5-14,84,65,43,62,50,38,89,62,44,30.14,29.83,12,4,19,0.00
2013-5-15,86,76,67,63,60,58,76,60,42,29.93,29.83,10,4,21,0.00
2013-5-16,73,67,61,65,60,54,96,81,62,29.95,29.84,7,1,12,0.21
2013-5-17,74,66,57,67,62,57,99,88,66,30.01,29.95,5,1,9,0.01
2013-5-18,82,70,64,69,65,61,94,84,59,30.01,29.91,5,1,7,0.00
2013-5-19,87,73,58,73,66,57,98,81,59,29.95,29.82,7,1,10,0.00
2013-5-20,85,76,67,72,69,66,95,80,58,29.94,29.81,8,3,14,0.00
2013-5-21,81,72,63,68,65,61,96,78,59,29.94,29.76,11,3,23,0.30
2013-5-22,78,69,62,66,63,59,93,80,57,29.78,29.71,11,3,19,0.01
2013-5-23,70,62,52,61,57,47,96,83,65,30.13,29.78,10,2,15,0.05
2013-5-24,72,55,42,49,45,39,92,71,35,30.35,30.13,7,2,12,0.00
2013-5-25,71,55,40,50,45,39,97,72,38,30.38,30.18,9,1,13,0.01
2013-5-26,77,62,51,58,53,49,95,75,48,30.27,30.11,5,1,12,0.07
2013-5-27,84,70,58,66,59,54,94,70,47,30.11,29.90,12,3,19,0.14
2013-5-28,84,74,63,70,65,61,96,75,57,29.98,29.87,13,3,19,0.00
2013-5-29,88,76,62,68,63,59,91,67,46,30.04,29.95,9,2,16,0.00
2013-5-30,84,78,70,71,67,62,83,70,60,30.05,29.93,11,4,18,0.00
2013-5-31,78,73,67,72,68,65,95,84,73,29.98,29.86,11,4,20,0.66
2013-6-1,74,69,64,70,66,62,96,89,77,29.93,29.75,8,3,15,0.55
2013-6-2,74,68,62,65,62,59,96,82,65,29.94,29.83,7,2,11,0.00
2013-6-3,71,63,55,58,55,52,94,77,53,30.06,29.93,6,1,10,0.00
2013-6-4,78,63,49,62,55,48,97,77,52,30.10,30.00,6,1,13,0.00
2013-6-5,86,69,55,67,59,52,92,73,47,30.02,29.81,5,1,8,0.00
2013-6-6,83,70,64,70,65,62,97,85,57,29.82,29.73,9,0,9,0.97
2013-6-7,80,68,61,65,62,60,97,83,52,29.85,29.75,6,1,11,0.00
2013-6-8,82,70,61,67,62,59,95,77,48,29.98,29.83,4,1,8,0.00
2013-6-9,80,70,60,70,63,58,96,82,52,29.99,29.81,6,1,9,0.00
2013-6-10,78,70,63,67,65,61,96,84,63,29.88,29.76,9,2,15,0.05
2013-6-11,85,72,58,70,64,57,98,79,54,29.97,29.86,9,1,9,0.00
2013-6-12,91,82,70,77,73,68,95,77,58,29.92,29.71,10,2,17,0.00
2013-6-13,83,78,66,73,65,53,78,66,45,29.93,29.64,10,3,22,0.01
2013-6-14,85,68,52,66,58,51,97,75,44,30.04,29.92,6,1,9,0.00
2013-6-15,87,72,58,67,62,56,97,73,47,30.08,29.93,8,1,13,0.00
2013-6-16,78,72,67,71,67,64,96,84,72,30.00,29.90,5,1,9,0.08
2013-6-17,90,74,65,76,68,64,97,85,53,29.96,29.82,9,1,15,0.91
2013-6-18,87,70,62,72,65,60,98,84,50,29.95,29.82,6,1,21,0.26
2013-6-19,87,72,61,69,65,60,98,81,51,30.06,29.94,6,1,10,0.00
2013-6-20,90,73,60,70,64,59,98,76,42,30.15,30.06,5,0,7,0.00
2013-6-21,89,75,61,74,67,59,97,79,50,30.15,30.04,5,1,9,0.00
2013-6-22,90,77,66,74,70,65,97,79,54,30.13,30.02,11,2,17,0.00
2013-6-23,86,74,65,73,69,64,97,83,60,30.09,30.01,6,1,14,0.25
2013-6-24,78,73,70,71,69,68,95,88,78,30.11,30.01,5,1,9,0.03
2013-6-25,91,78,66,78,72,65,98,82,59,30.03,29.86,6,2,13,0.00
2013-6-26,82,72,65,76,69,64,97,92,74,29.97,29.68,11,2,23,3.87
2013-6-27,90,76,68,79,72,67,99,89,59,29.79,29.72,5,1,11,0.01
2013-6-28,88,78,70,70,65,59,95,67,40,29.73,29.59,7,2,15,0.00
2013-6-29,83,70,62,71,65,60,97,82,58,29.64,29.55,7,1,14,0.52
2013-6-30,78,68,64,68,65,62,98,92,65,29.81,29.62,7,1,14,0.09
2013-7-1,78,68,64,69,65,62,97,90,72,29.89,29.78,8,3,13,0.12
2013-7-2,80,70,65,69,66,63,96,85,65,29.99,29.86,8,2,9,0.00
2013-7-3,81,70,59,69,64,58,98,83,62,30.07,29.98,6,1,15,0.00
2013-7-4,75,69,63,70,67,62,98,92,85,30.10,30.03,2,0,7,0.00
2013-7-5,81,72,64,71,68,63,97,86,69,30.09,30.03,5,0,7,0.00
2013-7-6,75,70,66,69,66,65,97,90,78,30.08,30.02,5,1,8,0.12
2013-7-7,87,74,66,71,68,65,97,82,52,30.08,30.00,4,1,8,0.00
2013-7-8,88,75,64,76,70,63,98,85,63,30.11,30.01,6,1,11,0.00
2013-7-9,90,80,72,77,74,71,96,81,59,30.06,29.94,6,1,11,0.01
2013-7-10,87,79,69,78,73,67,95,82,62,30.00,29.79,15,2,24,0.75
2013-7-11,84,74,64,70,64,59,97,75,47,29.98,29.89,10,2,15,0.00
2013-7-12,86,70,58,64,59,56,95,74,42,30.08,29.99,9,2,13,0.00
2013-7-13,88,70,59,69,64,58,96,82,51,30.07,30.00,7,1,14,0.04
2013-7-14,93,77,63,75,69,62,98,80,50,30.15,30.06,7,1,8,0.07
2013-7-15,92,79,70,75,72,69,98,81,54,30.25,30.15,8,1,12,0.01
2013-7-16,96,80,68,77,72,67,98,78,49,30.29,30.22,4,1,8,0.00
2013-7-17,97,82,70,78,74,69,98,79,51,30.29,30.14,5,1,11,0.00
2013-7-18,96,82,71,78,74,70,98,79,49,30.18,29.99,3,1,7,0.00
2013-7-19,92,82,74,77,74,71,96,79,58,30.01,29.86,6,2,13,0.00
2013-7-20,90,77,71,77,72,67,96,85,58,29.90,29.84,8,1,15,0.14
2013-7-21,90,76,66,75,70,66,98,83,54,29.94,29.83,9,1,9,2.01
2013-7-22,84,74,69,75,71,68,98,90,69,29.91,29.75,6,1,10,0.32
2013-7-23,91,76,66,78,72,66,99,87,62,29.82,29.72,6,1,10,0.00
2013-7-24,82,70,61,69,61,57,92,76,52,29.96,29.81,8,2,12,0.00
2013-7-25,84,68,56,61,58,54,96,74,41,30.06,29.96,6,1,11,0.00
2013-7-26,83,67,54,68,60,53,98,80,49,30.06,29.95,8,1,9,0.03
2013-7-27,79,69,62,67,62,52,97,81,53,29.96,29.85,7,1,12,0.49
2013-7-28,77,62,48,58,52,47,98,73,44,30.05,29.94,7,1,12,0.00
2013-7-29,82,66,53,64,57,52,98,77,44,30.16,30.05,7,1,10,0.00
2013-7-30,79,67,59,68,63,57,96,87,61,30.17,30.07,4,0,10,0.11
2013-7-31,76,70,66,71,67,63,96,91,82,30.07,29.93,5,1,6,0.01
2013-8-1,86,73,64,68,65,61,98,78,46,30.00,29.93,5,1,12,0.00
2013-8-2,84,70,57,69,64,56,98,82,57,30.00,29.93,7,1,13,0.00
2013-8-3,89,74,66,75,69,64,96,82,59,30.02,29.92,9,1,15,0.05
2013-8-4,82,69,58,65,60,55,97,76,43,30.12,30.02,6,1,12,0.01
2013-8-5,84,69,54,66,60,53,98,76,45,30.09,29.91,5,1,8,0.00
2013-8-6,83,74,68,75,70,65,93,85,74,29.93,29.87,5,1,8,0.00
2013-8-7,86,77,70,75,73,68,97,88,67,29.91,29.83,5,1,9,0.00
2013-8-8,89,78,70,76,73,69,97,85,59,29.92,29.83,6,1,12,0.95
2013-8-9,88,76,71,75,72,70,98,89,61,29.99,29.88,5,0,7,0.01
2013-8-10,89,77,71,75,71,68,95,83,55,30.07,29.99,4,0,7,0.00
2013-8-11,88,75,66,72,68,64,98,80,50,30.07,30.02,6,1,11,0.00
2013-8-12,81,71,62,76,68,61,98,92,79,30.06,29.86,4,0,4,0.69
2013-8-13,81,72,61,72,66,53,97,82,57,30.05,29.85,7,1,11,0.00
2013-8-14,78,60,50,56,52,49,97,78,43,30.15,30.05,9,1,12,0.00
2013-8-15,76,61,48,59,54,47,98,79,49,30.15,30.06,10,1,11,0.00
2013-8-16,83,65,52,64,57,51,98,78,44,30.11,30.07,7,2,12,0.00
2013-8-17,86,69,59,67,61,56,91,76,45,30.15,30.06,6,1,9,0.00
2013-8-18,88,71,58,66,62,57,98,77,41,30.15,30.05,6,1,11,0.00
2013-8-19,91,72,58,70,63,57,98,77,40,30.11,30.01,4,0,8,0.00
2013-8-20,89,73,62,72,66,60,97,82,53,30.11,30.03,8,1,12,0.00
2013-8-21,91,75,64,74,69,63,98,82,50,30.12,30.02,6,1,7,0.00
2013-8-22,91,76,65,76,70,64,98,83,53,30.08,29.98,4,1,10,0.13
2013-8-23,91,76,68,71,68,65,96,78,45,30.08,30.00,11,2,11,0.00
2013-8-24,93,74,61,70,64,58,98,75,30,30.21,30.09,5,1,10,0.00
2013-8-25,92,72,57,71,62,56,98,75,34,30.29,30.18,5,0,8,0.00
2013-8-26,90,76,64,75,69,63,98,81,55,30.22,30.06,6,1,10,0.00
2013-8-27,90,78,69,78,73,68,98,84,62,30.08,29.95,5,1,10,0.00
2013-8-28,95,81,71,74,72,69,97,76,48,29.97,29.89,11,2,14,0.00
2013-8-29,96,80,70,76,71,68,97,77,45,29.98,29.91,6,1,9,0.00
2013-8-30,96,79,66,76,71,65,98,80,47,29.94,29.81,5,1,9,0.00
2013-8-31,97,82,70,79,73,68,95,77,51,29.88,29.69,14,2,22,0.16
2013-9-1,90,76,68,77,71,67,96,85,57,29.86,29.68,8,2,20,0.29
2013-9-2,89,75,66,74,68,65,98,80,49,29.86,29.78,8,1,10,0.00
2013-9-3,83,69,58,65,59,56,93,74,41,30.04,29.86,10,2,14,0.00
2013-9-4,87,67,52,65,58,51,98,77,40,30.14,30.04,6,0,9,0.00
2013-9-5,90,70,56,69,62,55,98,78,42,30.18,30.10,6,1,9,0.00
2013-9-6,90,72,60,71,64,58,96,78,44,30.17,30.05,4,1,6,0.00
2013-9-7,88,73,60,70,65,59,98,79,50,30.06,29.93,6,1,10,0.00
2013-9-8,85,74,66,72,69,65,98,84,52,29.96,29.90,5,1,8,0.01
2013-9-9,94,78,65,75,70,64,98,79,47,29.99,29.91,7,1,12,0.00
2013-9-10,95,78,70,76,72,68,97,85,52,30.09,29.98,8,1,11,0.89
2013-9-11,94,78,68,76,72,67,98,84,51,30.12,30.01,4,1,7,0.00
2013-9-12,81,74,68,72,69,59,96,85,66,30.01,29.89,4,1,9,0.08
2013-9-13,73,62,49,59,52,47,92,72,46,30.06,29.93,12,2,19,0.00
2013-9-14,80,58,43,51,47,42,97,73,31,30.17,30.05,7,1,11,0.00
2013-9-15,80,60,44,61,52,43,98,77,43,30.11,30.02,6,1,12,0.00
2013-9-16,71,65,59,61,59,55,91,82,68,30.23,30.04,11,3,15,0.00
2013-9-17,80,63,51,63,55,50,95,78,42,30.25,30.11,5,1,10,0.00
2013-9-18,78,65,55,70,62,54,96,91,74,30.13,30.03,4,0,7,0.04
2013-9-19,83,72,64,74,68,63,98,89,72,30.09,29.93,7,1,10,0.20
2013-9-20,79,71,67,71,68,66,97,90,74,29.95,29.80,7,1,11,0.43
2013-9-21,74,63,51,66,56,50,97,80,45,29.87,29.75,9,1,11,0.32
2013-9-22,77,58,45,56,50,44,98,79,43,29.99,29.87,9,2,13,0.00
2013-9-23,80,58,44,55,50,43,97,77,38,30.06,29.97,5,1,14,0.01
2013-9-24,83,63,50,66,56,48,94,82,50,30.01,29.85,4,0,7,0.00
2013-9-25,84,68,59,66,61,58,96,81,47,29.88,29.81,9,1,11,0.00
2013-9-26,85,65,51,59,54,50,98,75,30,30.04,29.88,5,1,11,0.00
2013-9-27,88,64,49,63,54,48,98,76,33,30.14,30.04,3,0,8,0.00
2013-9-28,83,64,50,65,57,49,98,80,46,30.13,30.02,9,1,11,0.00
2013-9-29,64,61,56,61,59,54,97,94,82,30.03,29.98,7,1,10,0.25
2013-9-30,74,65,60,66,62,59,98,91,74,30.00,29.92,5,1,9,0.00
2013-10-1,81,68,58,68,63,57,98,86,59,30.06,29.98,8,1,9,0.00
2013-10-2,78,70,61,72,68,60,98,93,81,30.08,30.00,5,0,7,0.19
2013-10-3,83,72,66,72,68,65,98,88,62,30.06,29.94,6,1,10,0.08
2013-10-4,83,73,64,74,68,63,98,86,68,30.04,29.97,7,1,10,0.00
2013-10-5,74,71,68,72,69,66,98,93,88,30.01,29.86,7,1,10,0.80
2013-10-6,68,60,54,67,59,50,98,95,79,29.86,29.76,7,1,13,2.27
2013-10-7,65,55,46,50,47,44,95,76,54,30.16,29.92,9,2,11,0.00
2013-10-8,74,54,41,52,46,40,98,79,38,30.24,30.15,10,1,15,0.00
2013-10-9,80,57,42,61,50,41,98,81,47,30.20,30.11,5,1,7,0.00
2013-10-10,80,59,46,60,53,45,98,81,42,30.17,30.05,5,0,9,0.25
2013-10-11,82,59,44,56,50,43,98,78,33,30.09,30.00,4,0,6,0.00
2013-10-12,80,61,46,64,55,45,98,83,49,30.10,30.02,5,1,8,0.00
2013-10-13,77,63,48,60,54,46,98,75,36,30.30,30.11,8,1,12,0.00
2013-10-14,76,56,44,56,48,42,93,75,41,30.31,30.14,6,1,10,0.00
2013-10-15,68,60,51,64,58,49,96,93,82,30.14,29.93,6,1,10,0.12
2013-10-16,64,58,45,63,54,44,98,86,60,29.98,29.87,6,1,9,0.26
2013-10-17,60,48,41,49,45,40,98,89,67,29.99,29.90,7,1,13,0.14
2013-10-18,67,51,38,52,44,38,98,82,47,30.04,29.94,8,1,13,0.01
2013-10-19,55,48,37,47,43,36,95,85,56,30.02,29.84,9,1,12,0.20
2013-10-20,64,48,36,46,41,35,97,78,50,30.05,29.98,10,2,15,0.01
2013-10-21,65,52,40,50,45,38,97,78,57,30.00,29.91,9,2,14,0.02
2013-10-22,54,44,30,44,36,29,97,74,45,30.06,29.80,5,0,9,0.01
2013-10-23,47,43,37,44,37,32,91,80,62,30.09,29.78,9,2,16,0.01
2013-10-24,42,37,29,37,32,27,92,82,61,30.34,30.09,5,0,16,0.03
2013-10-25,52,35,24,33,27,22,96,78,39,30.50,30.32,6,0,9,0.01
2013-10-26,59,42,27,42,34,25,94,74,51,30.31,29.97,10,2,19,0.00
2013-10-27,61,42,29,40,34,27,97,75,38,30.12,30.04,6,1,10,0.00
2013-10-28,69,45,29,41,34,28,97,72,29,30.28,30.09,7,1,11,0.00
2013-10-29,59,46,34,52,43,33,97,89,77,30.33,30.16,3,0,8,0.16
2013-10-30,68,61,54,65,60,53,99,94,86,30.15,29.98,9,1,10,0.83
2013-10-31,67,63,57,65,60,55,95,89,75,29.97,29.37,18,6,25,0.77
2013-11-1,66,56,48,55,48,43,95,77,48,29.79,29.45,8,3,19,0.00
2013-11-2,57,46,35,45,40,34,97,81,57,30.15,29.79,9,1,14,0.00
2013-11-3,60,42,30,41,35,28,97,79,42,30.34,30.15,4,0,8,0.01
2013-11-4,59,50,37,45,40,35,93,70,55,30.34,30.26,7,1,10,0.00
2013-11-5,64,55,46,47,45,43,94,71,53,30.37,30.17,6,1,9,0.00
2013-11-6,60,55,42,57,49,40,95,81,62,30.16,29.98,13,4,15,0.47
2013-11-7,52,42,34,40,33,26,95,73,39,30.33,30.13,6,1,13,0.01
2013-11-8,58,40,26,36,30,25,96,72,34,30.41,30.23,7,1,10,0.00
2013-11-9,62,50,37,43,36,27,77,59,45,30.23,30.07,14,4,22,0.00
2013-11-10,59,45,30,43,34,28,94,68,33,30.36,30.17,6,1,12,0.00
2013-11-11,60,44,28,44,33,26,95,72,35,30.32,30.11,10,2,17,0.05
2013-11-12,41,33,23,35,24,21,93,73,49,30.68,30.30,15,3,19,0.04
2013-11-13,42,28,17,25,20,15,95,75,42,30.70,30.43,8,1,13,0.00
2013-11-14,55,41,28,25,22,18,75,50,26,30.43,30.15,12,4,17,0.00
2013-11-15,51,44,32,45,32,22,89,64,40,30.17,30.07,7,2,11,0.00
2013-11-16,62,55,48,60,52,45,95,90,79,30.07,29.82,13,4,16,0.01
2013-11-17,68,62,50,65,56,41,97,85,50,29.84,29.50,24,6,37,1.16
2013-11-18,56,47,38,43,36,29,96,67,43,30.23,29.84,12,2,19,0.00
2013-11-19,45,34,25,32,28,24,95,80,58,30.35,30.24,10,2,15,0.01
2013-11-20,55,40,26,36,31,24,93,72,46,30.30,30.17,7,2,11,0.00
2013-11-21,59,53,48,51,44,34,95,73,55,30.27,30.16,7,2,12,0.00
2013-11-22,54,48,38,52,46,34,97,91,81,30.41,30.15,8,2,15,0.00
2013-11-23,40,32,21,34,23,10,92,71,45,30.64,30.40,11,3,17,0.00
2013-11-24,33,22,13,17,13,10,90,69,43,30.75,30.55,6,1,11,0.00
2013-11-25,37,30,19,30,20,16,93,69,46,30.55,30.22,7,2,13,0.00
2013-11-26,37,34,32,33,30,26,95,84,69,30.25,29.97,11,1,12,0.01
2013-11-27,33,25,15,27,16,9,88,70,51,30.36,30.02,11,3,16,0.00
2013-11-28,39,25,13,20,16,11,91,72,42,30.48,30.32,11,2,18,0.00
2013-11-29,47,28,15,27,20,13,94,75,42,30.64,30.49,6,1,8,0.00
2013-11-30,54,37,23,32,26,21,94,68,39,30.50,30.19,12,2,18,0.00
2013-12-1,55,46,37,41,34,26,91,63,44,30.19,29.95,7,2,11,0.00
2013-12-2,57,44,34,43,38,32,95,82,56,29.95,29.75,4,0,6,0.00
2013-12-3,54,46,34,51,44,33,98,93,87,29.83,29.75,5,1,8,0.00
2013-12-4,68,57,44,61,54,42,98,89,73,29.80,29.64,7,3,18,0.00
2013-12-5,67,44,30,61,40,28,93,86,77,30.19,29.74,13,3,18,0.32
2013-12-6,30,26,24,29,24,22,94,93,91,30.46,30.16,8,2,12,0.00
2013-12-7,29,20,8,22,15,5,93,83,71,30.66,30.45,8,2,10,0.23
2013-12-8,32,26,20,31,23,16,97,89,82,30.53,30.05,8,3,13,0.00
2013-12-9,32,27,22,31,23,18,95,85,68,30.28,30.06,9,3,16,0.00
2013-12-10,30,21,9,19,16,6,91,80,57,30.40,30.23,8,2,16,0.03
2013-12-11,35,19,5,27,14,2,95,81,69,30.59,30.36,14,2,18,0.07
2013-12-12,26,15,-1,12,5,-4,88,67,37,30.64,30.40,6,2,10,0.00
2013-12-13,40,28,13,32,20,10,92,74,46,30.40,30.12,9,2,15,0.01
2013-12-14,37,35,31,36,33,29,97,94,91,30.13,29.74,8,2,13,0.68
2013-12-15,31,28,26,29,24,22,91,86,80,30.17,29.99,13,4,16,0.00
2013-12-16,43,34,30,35,31,27,94,87,72,30.15,30.02,6,2,12,0.00
2013-12-17,38,30,24,34,27,22,95,88,82,30.23,30.03,10,2,15,0.00
2013-12-18,44,32,18,23,20,16,95,66,34,30.33,30.07,12,3,14,0.00
2013-12-19,57,51,43,47,40,28,75,65,51,30.08,29.92,13,6,22,0.00
2013-12-20,62,58,55,59,53,46,92,81,67,29.92,29.79,17,8,24,0.03
2013-12-21,66,59,51,64,58,50,98,95,90,29.79,29.44,17,4,22,3.33
2013-12-22,61,45,34,60,43,31,97,94,89,30.12,29.43,16,5,23,0.10
2013-12-23,34,29,25,31,24,20,90,83,76,30.47,30.13,8,2,12,0.00
2013-12-24,25,18,11,20,11,5,89,76,57,30.64,30.46,7,2,12,0.00
2013-12-25,35,27,17,27,19,13,82,73,57,30.49,30.27,9,2,12,0.00
2013-12-26,43,33,26,30,26,23,91,77,52,30.41,30.25,8,2,15,0.01
2013-12-27,51,34,24,34,28,22,94,79,52,30.44,30.33,11,2,14,0.00
2013-12-28,51,40,28,35,30,26,94,69,48,30.33,30.01,8,2,11,0.00
2013-12-29,47,37,28,41,34,27,96,90,70,30.13,29.86,12,3,17,0.28
2013-12-30,29,24,20,27,18,13,92,77,55,30.32,30.13,6,2,11,0.00
2013-12-31,39,30,21,24,20,16,81,67,47,30.43,30.25,7,3,13,0.00
2014-1-1,47,37,26,31,27,23,88,70,50,30.29,30.01,12,2,14,0.00
2014-1-2,35,25,13,32,21,8,96,88,79,30.39,29.85,11,2,19,0.16